sensor_id;sensor_type;location;lat;lon;timestamp;P1;durP1;ratioP1;P2;durP2;ratioP2
36827;SDS011;22766;48.042;11.192;2023-06-10T00:02:13;6.32;;;4.75;;
36827;SDS011;22766;48.042;11.192;2023-06-10T00:04:40;12.32;;;5.15;;
36827;SDS011;22766;48.042;11.192;2023-06-10T00:07:08;6.55;;;4.57;;
36827;SDS011;22766;48.042;11.192;2023-06-10T00:09:36;9.07;;;4.80;;
36827;SDS011;22766;48.042;11.192;2023-06-10T00:12:07;6.20;;;4.18;;
36827;SDS011;22766;48.042;11.192;2023-06-10T00:14:37;7.18;;;4.50;;
36827;SDS011;22766;48.042;11.192;2023-06-10T00:17:05;7.43;;;4.80;;
36827;SDS011;22766;48.042;11.192;2023-06-10T00:19:36;9.25;;;4.70;;
36827;SDS011;22766;48.042;11.192;2023-06-10T00:22:08;7.03;;;4.78;;
36827;SDS011;22766;48.042;11.192;2023-06-10T00:24:37;6.22;;;4.10;;
36827;SDS011;22766;48.042;11.192;2023-06-10T00:27:04;6.65;;;4.70;;
36827;SDS011;22766;48.042;11.192;2023-06-10T00:29:33;7.28;;;5.22;;
36827;SDS011;22766;48.042;11.192;2023-06-10T00:32:00;7.55;;;4.85;;
36827;SDS011;22766;48.042;11.192;2023-06-10T00:34:27;7.43;;;4.85;;
36827;SDS011;22766;48.042;11.192;2023-06-10T00:36:54;7.30;;;5.15;;
36827;SDS011;22766;48.042;11.192;2023-06-10T00:39:21;5.38;;;4.32;;
36827;SDS011;22766;48.042;11.192;2023-06-10T00:41:48;6.50;;;4.60;;
36827;SDS011;22766;48.042;11.192;2023-06-10T00:44:15;6.65;;;4.75;;
36827;SDS011;22766;48.042;11.192;2023-06-10T00:46:42;7.05;;;4.78;;
36827;SDS011;22766;48.042;11.192;2023-06-10T00:49:10;6.97;;;5.40;;
36827;SDS011;22766;48.042;11.192;2023-06-10T00:51:37;8.13;;;5.43;;
36827;SDS011;22766;48.042;11.192;2023-06-10T00:54:05;7.25;;;5.43;;
36827;SDS011;22766;48.042;11.192;2023-06-10T00:56:34;8.15;;;5.65;;
36827;SDS011;22766;48.042;11.192;2023-06-10T00:59:01;6.25;;;4.50;;
36827;SDS011;22766;48.042;11.192;2023-06-10T01:01:28;7.65;;;5.07;;
36827;SDS011;22766;48.042;11.192;2023-06-10T01:03:56;6.70;;;4.75;;
36827;SDS011;22766;48.042;11.192;2023-06-10T01:15:08;7.82;;;4.50;;
36827;SDS011;22766;48.042;11.192;2023-06-10T01:17:59;8.02;;;5.25;;
36827;SDS011;22766;48.042;11.192;2023-06-10T01:20:36;6.93;;;4.85;;
36827;SDS011;22766;48.042;11.192;2023-06-10T01:23:07;5.80;;;4.50;;
36827;SDS011;22766;48.042;11.192;2023-06-10T01:25:37;6.82;;;4.70;;
36827;SDS011;22766;48.042;11.192;2023-06-10T01:30:45;7.20;;;5.00;;
36827;SDS011;22766;48.042;11.192;2023-06-10T01:33:25;8.73;;;5.15;;
36827;SDS011;22766;48.042;11.192;2023-06-10T01:35:56;8.82;;;4.93;;
36827;SDS011;22766;48.042;11.192;2023-06-10T01:38:25;6.93;;;4.97;;
36827;SDS011;22766;48.042;11.192;2023-06-10T01:40:53;11.88;;;5.63;;
36827;SDS011;22766;48.042;11.192;2023-06-10T01:43:23;7.03;;;5.03;;
36827;SDS011;22766;48.042;11.192;2023-06-10T01:45:50;8.63;;;5.63;;
36827;SDS011;22766;48.042;11.192;2023-06-10T01:48:16;7.90;;;5.80;;
36827;SDS011;22766;48.042;11.192;2023-06-10T01:50:43;8.85;;;5.72;;
36827;SDS011;22766;48.042;11.192;2023-06-10T01:53:10;7.07;;;5.03;;
36827;SDS011;22766;48.042;11.192;2023-06-10T01:55:37;7.63;;;5.38;;
36827;SDS011;22766;48.042;11.192;2023-06-10T01:58:04;6.30;;;4.68;;
36827;SDS011;22766;48.042;11.192;2023-06-10T02:00:31;8.18;;;4.95;;
36827;SDS011;22766;48.042;11.192;2023-06-10T02:02:58;8.02;;;5.80;;
36827;SDS011;22766;48.042;11.192;2023-06-10T02:05:25;9.10;;;5.20;;
36827;SDS011;22766;48.042;11.192;2023-06-10T02:07:52;10.93;;;5.47;;
36827;SDS011;22766;48.042;11.192;2023-06-10T02:10:20;8.48;;;5.45;;
36827;SDS011;22766;48.042;11.192;2023-06-10T02:12:48;10.10;;;5.40;;
36827;SDS011;22766;48.042;11.192;2023-06-10T02:15:15;8.27;;;5.15;;
36827;SDS011;22766;48.042;11.192;2023-06-10T02:17:45;9.05;;;5.70;;
36827;SDS011;22766;48.042;11.192;2023-06-10T02:20:12;7.72;;;5.20;;
36827;SDS011;22766;48.042;11.192;2023-06-10T02:22:40;7.28;;;5.22;;
36827;SDS011;22766;48.042;11.192;2023-06-10T02:25:07;9.80;;;5.43;;
36827;SDS011;22766;48.042;11.192;2023-06-10T02:27:34;7.10;;;5.30;;
36827;SDS011;22766;48.042;11.192;2023-06-10T02:30:01;7.40;;;5.18;;
36827;SDS011;22766;48.042;11.192;2023-06-10T02:32:31;8.63;;;5.38;;
36827;SDS011;22766;48.042;11.192;2023-06-10T02:34:58;8.02;;;5.10;;
36827;SDS011;22766;48.042;11.192;2023-06-10T02:37:27;6.45;;;4.55;;
36827;SDS011;22766;48.042;11.192;2023-06-10T02:39:55;6.82;;;4.57;;
36827;SDS011;22766;48.042;11.192;2023-06-10T02:42:22;8.07;;;5.15;;
36827;SDS011;22766;48.042;11.192;2023-06-10T02:44:51;6.45;;;4.63;;
36827;SDS011;22766;48.042;11.192;2023-06-10T02:47:31;7.43;;;5.20;;
36827;SDS011;22766;48.042;11.192;2023-06-10T02:49:59;10.50;;;5.93;;
36827;SDS011;22766;48.042;11.192;2023-06-10T02:52:29;8.80;;;5.43;;
36827;SDS011;22766;48.042;11.192;2023-06-10T02:54:56;7.63;;;5.03;;
36827;SDS011;22766;48.042;11.192;2023-06-10T02:57:23;7.38;;;5.10;;
36827;SDS011;22766;48.042;11.192;2023-06-10T02:59:50;6.82;;;5.30;;
36827;SDS011;22766;48.042;11.192;2023-06-10T03:02:17;7.63;;;5.65;;
36827;SDS011;22766;48.042;11.192;2023-06-10T03:04:49;7.85;;;5.18;;
36827;SDS011;22766;48.042;11.192;2023-06-10T03:07:18;7.60;;;4.72;;
36827;SDS011;22766;48.042;11.192;2023-06-10T03:09:45;8.50;;;4.90;;
36827;SDS011;22766;48.042;11.192;2023-06-10T03:12:13;9.38;;;5.28;;
36827;SDS011;22766;48.042;11.192;2023-06-10T03:14:44;5.68;;;4.32;;
36827;SDS011;22766;48.042;11.192;2023-06-10T03:17:11;7.00;;;5.13;;
36827;SDS011;22766;48.042;11.192;2023-06-10T03:19:40;9.27;;;5.28;;
36827;SDS011;22766;48.042;11.192;2023-06-10T03:22:11;7.00;;;4.60;;
36827;SDS011;22766;48.042;11.192;2023-06-10T03:24:52;7.07;;;5.00;;
36827;SDS011;22766;48.042;11.192;2023-06-10T03:27:19;8.10;;;5.68;;
36827;SDS011;22766;48.042;11.192;2023-06-10T03:29:50;8.48;;;5.50;;
36827;SDS011;22766;48.042;11.192;2023-06-10T03:32:18;6.38;;;4.80;;
36827;SDS011;22766;48.042;11.192;2023-06-10T03:34:45;7.47;;;5.00;;
36827;SDS011;22766;48.042;11.192;2023-06-10T03:37:12;6.53;;;4.82;;
36827;SDS011;22766;48.042;11.192;2023-06-10T03:39:39;7.38;;;5.13;;
36827;SDS011;22766;48.042;11.192;2023-06-10T03:42:06;6.40;;;4.82;;
36827;SDS011;22766;48.042;11.192;2023-06-10T03:44:33;5.65;;;4.47;;
36827;SDS011;22766;48.042;11.192;2023-06-10T03:47:00;8.50;;;5.18;;
36827;SDS011;22766;48.042;11.192;2023-06-10T03:49:28;8.73;;;5.32;;
36827;SDS011;22766;48.042;11.192;2023-06-10T03:51:59;6.90;;;4.90;;
36827;SDS011;22766;48.042;11.192;2023-06-10T03:54:26;9.50;;;4.72;;
36827;SDS011;22766;48.042;11.192;2023-06-10T03:56:52;8.00;;;5.18;;
36827;SDS011;22766;48.042;11.192;2023-06-10T03:59:19;9.05;;;5.10;;
36827;SDS011;22766;48.042;11.192;2023-06-10T04:01:46;7.70;;;5.40;;
36827;SDS011;22766;48.042;11.192;2023-06-10T04:04:14;8.60;;;5.68;;
36827;SDS011;22766;48.042;11.192;2023-06-10T04:06:43;8.80;;;5.97;;
36827;SDS011;22766;48.042;11.192;2023-06-10T04:09:11;9.48;;;5.05;;
36827;SDS011;22766;48.042;11.192;2023-06-10T04:11:38;8.18;;;6.00;;
36827;SDS011;22766;48.042;11.192;2023-06-10T04:14:05;9.32;;;5.22;;
36827;SDS011;22766;48.042;11.192;2023-06-10T04:16:33;9.38;;;5.85;;
36827;SDS011;22766;48.042;11.192;2023-06-10T04:19:01;8.82;;;5.80;;
36827;SDS011;22766;48.042;11.192;2023-06-10T04:21:28;7.68;;;5.22;;
36827;SDS011;22766;48.042;11.192;2023-06-10T04:23:55;9.15;;;5.90;;
36827;SDS011;22766;48.042;11.192;2023-06-10T04:26:21;8.23;;;5.70;;
36827;SDS011;22766;48.042;11.192;2023-06-10T04:28:50;8.25;;;5.15;;
36827;SDS011;22766;48.042;11.192;2023-06-10T04:31:17;9.43;;;5.75;;
36827;SDS011;22766;48.042;11.192;2023-06-10T04:33:44;8.43;;;5.68;;
36827;SDS011;22766;48.042;11.192;2023-06-10T04:36:12;8.02;;;5.82;;
36827;SDS011;22766;48.042;11.192;2023-06-10T04:38:39;9.07;;;5.85;;
36827;SDS011;22766;48.042;11.192;2023-06-10T04:41:07;9.13;;;6.47;;
36827;SDS011;22766;48.042;11.192;2023-06-10T04:43:35;9.43;;;6.53;;
36827;SDS011;22766;48.042;11.192;2023-06-10T04:46:03;8.38;;;6.38;;
36827;SDS011;22766;48.042;11.192;2023-06-10T04:48:33;10.55;;;6.13;;
36827;SDS011;22766;48.042;11.192;2023-06-10T04:51:02;7.38;;;5.82;;
36827;SDS011;22766;48.042;11.192;2023-06-10T04:53:29;9.50;;;6.22;;
36827;SDS011;22766;48.042;11.192;2023-06-10T04:55:56;7.68;;;5.75;;
36827;SDS011;22766;48.042;11.192;2023-06-10T04:58:26;7.32;;;5.50;;
36827;SDS011;22766;48.042;11.192;2023-06-10T05:00:53;8.95;;;5.50;;
36827;SDS011;22766;48.042;11.192;2023-06-10T05:03:19;9.80;;;6.15;;
36827;SDS011;22766;48.042;11.192;2023-06-10T05:05:46;9.73;;;5.85;;
36827;SDS011;22766;48.042;11.192;2023-06-10T05:08:13;8.23;;;5.65;;
36827;SDS011;22766;48.042;11.192;2023-06-10T05:10:40;11.40;;;6.28;;
36827;SDS011;22766;48.042;11.192;2023-06-10T05:13:06;8.48;;;6.15;;
36827;SDS011;22766;48.042;11.192;2023-06-10T05:15:33;8.70;;;6.00;;
36827;SDS011;22766;48.042;11.192;2023-06-10T05:18:00;9.00;;;5.90;;
36827;SDS011;22766;48.042;11.192;2023-06-10T05:20:29;10.05;;;5.57;;
36827;SDS011;22766;48.042;11.192;2023-06-10T05:22:56;7.93;;;5.20;;
36827;SDS011;22766;48.042;11.192;2023-06-10T05:25:25;10.65;;;5.57;;
36827;SDS011;22766;48.042;11.192;2023-06-10T05:27:52;8.07;;;5.45;;
36827;SDS011;22766;48.042;11.192;2023-06-10T05:30:19;7.95;;;4.30;;
36827;SDS011;22766;48.042;11.192;2023-06-10T05:32:46;6.95;;;4.90;;
36827;SDS011;22766;48.042;11.192;2023-06-10T05:35:14;8.25;;;5.18;;
36827;SDS011;22766;48.042;11.192;2023-06-10T05:37:41;7.43;;;5.35;;
36827;SDS011;22766;48.042;11.192;2023-06-10T05:40:08;7.32;;;5.25;;
36827;SDS011;22766;48.042;11.192;2023-06-10T05:42:35;7.72;;;5.10;;
36827;SDS011;22766;48.042;11.192;2023-06-10T05:45:02;9.50;;;5.75;;
36827;SDS011;22766;48.042;11.192;2023-06-10T05:47:29;8.30;;;5.43;;
36827;SDS011;22766;48.042;11.192;2023-06-10T05:49:56;7.70;;;5.20;;
36827;SDS011;22766;48.042;11.192;2023-06-10T05:52:23;8.32;;;4.97;;
36827;SDS011;22766;48.042;11.192;2023-06-10T05:54:50;11.32;;;6.63;;
36827;SDS011;22766;48.042;11.192;2023-06-10T05:57:17;8.32;;;4.78;;
36827;SDS011;22766;48.042;11.192;2023-06-10T05:59:44;10.40;;;5.57;;
36827;SDS011;22766;48.042;11.192;2023-06-10T06:02:10;8.80;;;5.63;;
36827;SDS011;22766;48.042;11.192;2023-06-10T06:04:37;8.10;;;5.13;;
36827;SDS011;22766;48.042;11.192;2023-06-10T06:07:04;7.55;;;5.70;;
36827;SDS011;22766;48.042;11.192;2023-06-10T06:09:32;8.75;;;4.78;;
36827;SDS011;22766;48.042;11.192;2023-06-10T06:11:58;6.43;;;5.28;;
36827;SDS011;22766;48.042;11.192;2023-06-10T06:14:25;7.55;;;5.20;;
36827;SDS011;22766;48.042;11.192;2023-06-10T06:16:52;9.32;;;5.40;;
36827;SDS011;22766;48.042;11.192;2023-06-10T06:19:18;7.75;;;5.47;;
36827;SDS011;22766;48.042;11.192;2023-06-10T06:21:45;7.53;;;5.22;;
36827;SDS011;22766;48.042;11.192;2023-06-10T06:24:12;9.15;;;5.90;;
36827;SDS011;22766;48.042;11.192;2023-06-10T06:26:39;6.97;;;4.60;;
36827;SDS011;22766;48.042;11.192;2023-06-10T06:29:05;7.07;;;5.05;;
36827;SDS011;22766;48.042;11.192;2023-06-10T06:31:32;7.22;;;5.05;;
36827;SDS011;22766;48.042;11.192;2023-06-10T06:33:59;6.38;;;4.55;;
36827;SDS011;22766;48.042;11.192;2023-06-10T06:36:26;8.82;;;4.72;;
36827;SDS011;22766;48.042;11.192;2023-06-10T06:38:53;7.20;;;4.80;;
36827;SDS011;22766;48.042;11.192;2023-06-10T06:41:21;5.85;;;4.07;;
36827;SDS011;22766;48.042;11.192;2023-06-10T06:43:48;7.63;;;5.20;;
36827;SDS011;22766;48.042;11.192;2023-06-10T06:46:22;8.38;;;4.40;;
36827;SDS011;22766;48.042;11.192;2023-06-10T06:48:49;5.85;;;4.70;;
36827;SDS011;22766;48.042;11.192;2023-06-10T06:51:16;6.57;;;4.47;;
36827;SDS011;22766;48.042;11.192;2023-06-10T06:53:43;7.60;;;4.82;;
36827;SDS011;22766;48.042;11.192;2023-06-10T06:56:13;6.03;;;4.20;;
36827;SDS011;22766;48.042;11.192;2023-06-10T06:58:40;5.65;;;3.95;;
36827;SDS011;22766;48.042;11.192;2023-06-10T07:01:07;5.35;;;3.85;;
36827;SDS011;22766;48.042;11.192;2023-06-10T07:03:34;5.63;;;3.95;;
36827;SDS011;22766;48.042;11.192;2023-06-10T07:06:01;7.38;;;4.63;;
36827;SDS011;22766;48.042;11.192;2023-06-10T07:08:28;7.40;;;5.10;;
36827;SDS011;22766;48.042;11.192;2023-06-10T07:10:55;7.07;;;4.15;;
36827;SDS011;22766;48.042;11.192;2023-06-10T07:13:22;7.05;;;4.50;;
36827;SDS011;22766;48.042;11.192;2023-06-10T07:15:49;6.35;;;3.80;;
36827;SDS011;22766;48.042;11.192;2023-06-10T07:18:15;6.45;;;4.35;;
36827;SDS011;22766;48.042;11.192;2023-06-10T07:20:44;7.28;;;4.28;;
36827;SDS011;22766;48.042;11.192;2023-06-10T07:23:11;5.68;;;3.80;;
36827;SDS011;22766;48.042;11.192;2023-06-10T07:25:37;8.00;;;4.10;;
36827;SDS011;22766;48.042;11.192;2023-06-10T07:28:04;4.97;;;3.30;;
36827;SDS011;22766;48.042;11.192;2023-06-10T07:30:31;6.18;;;3.60;;
36827;SDS011;22766;48.042;11.192;2023-06-10T07:32:58;4.90;;;3.67;;
36827;SDS011;22766;48.042;11.192;2023-06-10T07:35:25;8.05;;;3.67;;
36827;SDS011;22766;48.042;11.192;2023-06-10T07:37:52;5.80;;;3.63;;
36827;SDS011;22766;48.042;11.192;2023-06-10T07:40:18;5.25;;;3.47;;
36827;SDS011;22766;48.042;11.192;2023-06-10T07:42:45;11.93;;;3.65;;
36827;SDS011;22766;48.042;11.192;2023-06-10T07:45:12;4.53;;;3.22;;
36827;SDS011;22766;48.042;11.192;2023-06-10T07:47:38;4.20;;;3.20;;
36827;SDS011;22766;48.042;11.192;2023-06-10T07:50:05;5.47;;;3.75;;
36827;SDS011;22766;48.042;11.192;2023-06-10T07:52:32;6.15;;;3.97;;
36827;SDS011;22766;48.042;11.192;2023-06-10T07:54:59;4.43;;;3.25;;
36827;SDS011;22766;48.042;11.192;2023-06-10T07:57:25;5.50;;;3.83;;
36827;SDS011;22766;48.042;11.192;2023-06-10T07:59:52;3.97;;;2.97;;
36827;SDS011;22766;48.042;11.192;2023-06-10T08:02:21;5.30;;;2.80;;
36827;SDS011;22766;48.042;11.192;2023-06-10T08:04:51;4.17;;;2.83;;
36827;SDS011;22766;48.042;11.192;2023-06-10T08:07:18;4.57;;;3.03;;
36827;SDS011;22766;48.042;11.192;2023-06-10T08:09:45;4.43;;;2.47;;
36827;SDS011;22766;48.042;11.192;2023-06-10T08:12:12;3.65;;;2.95;;
36827;SDS011;22766;48.042;11.192;2023-06-10T08:14:41;3.80;;;2.92;;
36827;SDS011;22766;48.042;11.192;2023-06-10T08:17:08;5.05;;;2.83;;
36827;SDS011;22766;48.042;11.192;2023-06-10T08:19:35;7.65;;;3.22;;
36827;SDS011;22766;48.042;11.192;2023-06-10T08:22:01;3.65;;;2.92;;
36827;SDS011;22766;48.042;11.192;2023-06-10T08:24:28;4.72;;;3.17;;
36827;SDS011;22766;48.042;11.192;2023-06-10T08:26:55;4.45;;;3.17;;
36827;SDS011;22766;48.042;11.192;2023-06-10T08:29:23;4.03;;;2.97;;
36827;SDS011;22766;48.042;11.192;2023-06-10T08:31:50;3.15;;;2.40;;
36827;SDS011;22766;48.042;11.192;2023-06-10T08:34:16;3.90;;;2.90;;
36827;SDS011;22766;48.042;11.192;2023-06-10T08:36:43;3.60;;;2.60;;
36827;SDS011;22766;48.042;11.192;2023-06-10T08:39:11;4.75;;;2.78;;
36827;SDS011;22766;48.042;11.192;2023-06-10T08:41:41;4.13;;;2.90;;
36827;SDS011;22766;48.042;11.192;2023-06-10T08:44:12;5.05;;;3.22;;
36827;SDS011;22766;48.042;11.192;2023-06-10T08:46:59;4.68;;;2.58;;
36827;SDS011;22766;48.042;11.192;2023-06-10T08:49:27;3.70;;;2.30;;
36827;SDS011;22766;48.042;11.192;2023-06-10T08:52:00;3.67;;;2.47;;
36827;SDS011;22766;48.042;11.192;2023-06-10T08:54:30;4.10;;;3.13;;
36827;SDS011;22766;48.042;11.192;2023-06-10T08:57:00;4.20;;;2.70;;
36827;SDS011;22766;48.042;11.192;2023-06-10T08:59:32;4.35;;;2.83;;
36827;SDS011;22766;48.042;11.192;2023-06-10T09:01:58;4.68;;;2.30;;
36827;SDS011;22766;48.042;11.192;2023-06-10T09:04:27;3.65;;;2.40;;
36827;SDS011;22766;48.042;11.192;2023-06-10T09:06:54;3.53;;;2.35;;
36827;SDS011;22766;48.042;11.192;2023-06-10T09:09:22;4.22;;;2.20;;
36827;SDS011;22766;48.042;11.192;2023-06-10T09:11:49;3.45;;;2.40;;
36827;SDS011;22766;48.042;11.192;2023-06-10T09:14:16;4.25;;;2.17;;
36827;SDS011;22766;48.042;11.192;2023-06-10T09:16:43;4.10;;;2.30;;
36827;SDS011;22766;48.042;11.192;2023-06-10T09:19:12;4.25;;;2.65;;
36827;SDS011;22766;48.042;11.192;2023-06-10T09:21:40;4.18;;;2.47;;
36827;SDS011;22766;48.042;11.192;2023-06-10T09:24:07;3.60;;;2.50;;
36827;SDS011;22766;48.042;11.192;2023-06-10T09:26:35;2.97;;;2.47;;
36827;SDS011;22766;48.042;11.192;2023-06-10T09:29:04;3.40;;;2.40;;
36827;SDS011;22766;48.042;11.192;2023-06-10T09:31:35;3.47;;;2.25;;
36827;SDS011;22766;48.042;11.192;2023-06-10T09:36:40;3.90;;;2.63;;
36827;SDS011;22766;48.042;11.192;2023-06-10T09:39:14;5.32;;;2.30;;
36827;SDS011;22766;48.042;11.192;2023-06-10T09:41:42;3.65;;;2.00;;
36827;SDS011;22766;48.042;11.192;2023-06-10T09:44:17;3.22;;;2.38;;
36827;SDS011;22766;48.042;11.192;2023-06-10T09:46:45;3.05;;;1.92;;
36827;SDS011;22766;48.042;11.192;2023-06-10T09:49:13;3.03;;;1.98;;
36827;SDS011;22766;48.042;11.192;2023-06-10T09:51:53;8.05;;;2.60;;
36827;SDS011;22766;48.042;11.192;2023-06-10T09:54:21;2.58;;;1.88;;
36827;SDS011;22766;48.042;11.192;2023-06-10T09:56:49;3.30;;;1.90;;
36827;SDS011;22766;48.042;11.192;2023-06-10T09:59:37;3.10;;;2.08;;
36827;SDS011;22766;48.042;11.192;2023-06-10T10:02:04;6.55;;;3.28;;
36827;SDS011;22766;48.042;11.192;2023-06-10T10:04:34;2.88;;;1.75;;
36827;SDS011;22766;48.042;11.192;2023-06-10T10:07:01;3.03;;;2.03;;
36827;SDS011;22766;48.042;11.192;2023-06-10T10:09:28;2.63;;;1.70;;
36827;SDS011;22766;48.042;11.192;2023-06-10T10:11:55;1.90;;;1.50;;
36827;SDS011;22766;48.042;11.192;2023-06-10T10:14:24;2.53;;;1.90;;
36827;SDS011;22766;48.042;11.192;2023-06-10T10:16:51;3.63;;;2.03;;
36827;SDS011;22766;48.042;11.192;2023-06-10T10:19:28;3.20;;;1.83;;
36827;SDS011;22766;48.042;11.192;2023-06-10T10:22:01;4.22;;;2.15;;
36827;SDS011;22766;48.042;11.192;2023-06-10T10:24:39;3.95;;;1.77;;
36827;SDS011;22766;48.042;11.192;2023-06-10T10:27:15;2.83;;;1.70;;
36827;SDS011;22766;48.042;11.192;2023-06-10T10:32:36;3.13;;;2.00;;
36827;SDS011;22766;48.042;11.192;2023-06-10T10:35:15;8.80;;;2.13;;
36827;SDS011;22766;48.042;11.192;2023-06-10T10:37:44;5.93;;;2.50;;
36827;SDS011;22766;48.042;11.192;2023-06-10T10:40:11;3.05;;;1.77;;
36827;SDS011;22766;48.042;11.192;2023-06-10T10:42:38;2.72;;;1.45;;
36827;SDS011;22766;48.042;11.192;2023-06-10T10:45:07;2.17;;;1.88;;
36827;SDS011;22766;48.042;11.192;2023-06-10T10:47:36;2.38;;;1.75;;
36827;SDS011;22766;48.042;11.192;2023-06-10T10:50:14;6.18;;;1.90;;
36827;SDS011;22766;48.042;11.192;2023-06-10T10:52:51;3.20;;;1.88;;
36827;SDS011;22766;48.042;11.192;2023-06-10T10:55:20;2.92;;;1.90;;
36827;SDS011;22766;48.042;11.192;2023-06-10T10:57:54;3.33;;;2.00;;
36827;SDS011;22766;48.042;11.192;2023-06-10T11:00:32;2.72;;;1.98;;
36827;SDS011;22766;48.042;11.192;2023-06-10T11:05:48;3.22;;;2.20;;
36827;SDS011;22766;48.042;11.192;2023-06-10T11:10:55;2.70;;;1.90;;
36827;SDS011;22766;48.042;11.192;2023-06-10T11:13:22;3.25;;;2.17;;
36827;SDS011;22766;48.042;11.192;2023-06-10T11:15:51;2.25;;;1.73;;
36827;SDS011;22766;48.042;11.192;2023-06-10T11:18:39;2.92;;;2.15;;
36827;SDS011;22766;48.042;11.192;2023-06-10T11:21:06;3.15;;;2.33;;
36827;SDS011;22766;48.042;11.192;2023-06-10T11:23:34;2.55;;;1.83;;
36827;SDS011;22766;48.042;11.192;2023-06-10T11:33:53;2.53;;;1.83;;
36827;SDS011;22766;48.042;11.192;2023-06-10T11:36:23;2.45;;;1.90;;
36827;SDS011;22766;48.042;11.192;2023-06-10T11:41:25;3.17;;;2.03;;
36827;SDS011;22766;48.042;11.192;2023-06-10T11:43:53;3.00;;;2.10;;
36827;SDS011;22766;48.042;11.192;2023-06-10T11:46:23;2.67;;;1.85;;
36827;SDS011;22766;48.042;11.192;2023-06-10T11:48:53;2.88;;;1.98;;
36827;SDS011;22766;48.042;11.192;2023-06-10T11:51:27;2.78;;;1.92;;
36827;SDS011;22766;48.042;11.192;2023-06-10T11:53:56;4.70;;;2.03;;
36827;SDS011;22766;48.042;11.192;2023-06-10T11:56:24;3.92;;;2.03;;
36827;SDS011;22766;48.042;11.192;2023-06-10T11:58:54;3.70;;;2.03;;
36827;SDS011;22766;48.042;11.192;2023-06-10T12:01:22;3.13;;;1.85;;
36827;SDS011;22766;48.042;11.192;2023-06-10T12:06:24;4.15;;;1.80;;
36827;SDS011;22766;48.042;11.192;2023-06-10T12:08:51;2.47;;;2.00;;
36827;SDS011;22766;48.042;11.192;2023-06-10T12:11:18;2.70;;;1.77;;
36827;SDS011;22766;48.042;11.192;2023-06-10T12:13:45;6.07;;;1.80;;
36827;SDS011;22766;48.042;11.192;2023-06-10T12:16:15;2.95;;;1.88;;
36827;SDS011;22766;48.042;11.192;2023-06-10T12:18:45;4.93;;;2.08;;
36827;SDS011;22766;48.042;11.192;2023-06-10T12:21:17;2.80;;;1.70;;
36827;SDS011;22766;48.042;11.192;2023-06-10T12:23:59;2.40;;;1.70;;
36827;SDS011;22766;48.042;11.192;2023-06-10T12:26:37;2.53;;;1.83;;
36827;SDS011;22766;48.042;11.192;2023-06-10T12:31:57;2.85;;;1.80;;
36827;SDS011;22766;48.042;11.192;2023-06-10T12:36:56;2.70;;;1.52;;
36827;SDS011;22766;48.042;11.192;2023-06-10T12:39:22;2.05;;;1.73;;
36827;SDS011;22766;48.042;11.192;2023-06-10T12:41:50;1.85;;;1.65;;
36827;SDS011;22766;48.042;11.192;2023-06-10T12:44:17;2.40;;;1.45;;
36827;SDS011;22766;48.042;11.192;2023-06-10T12:46:44;3.15;;;1.60;;
36827;SDS011;22766;48.042;11.192;2023-06-10T12:49:20;2.97;;;2.00;;
36827;SDS011;22766;48.042;11.192;2023-06-10T12:51:47;3.33;;;1.67;;
36827;SDS011;22766;48.042;11.192;2023-06-10T12:54:14;1.95;;;1.60;;
36827;SDS011;22766;48.042;11.192;2023-06-10T12:56:41;2.97;;;1.77;;
36827;SDS011;22766;48.042;11.192;2023-06-10T12:59:08;2.25;;;1.50;;
36827;SDS011;22766;48.042;11.192;2023-06-10T13:01:35;19.08;;;2.60;;
36827;SDS011;22766;48.042;11.192;2023-06-10T13:04:02;2.72;;;1.70;;
36827;SDS011;22766;48.042;11.192;2023-06-10T13:06:31;1.73;;;1.20;;
36827;SDS011;22766;48.042;11.192;2023-06-10T13:08:59;1.65;;;1.50;;
36827;SDS011;22766;48.042;11.192;2023-06-10T13:11:26;2.22;;;1.30;;
36827;SDS011;22766;48.042;11.192;2023-06-10T13:13:53;2.00;;;1.42;;
36827;SDS011;22766;48.042;11.192;2023-06-10T13:16:19;2.30;;;1.48;;
36827;SDS011;22766;48.042;11.192;2023-06-10T13:18:46;2.80;;;1.60;;
36827;SDS011;22766;48.042;11.192;2023-06-10T13:21:13;5.03;;;1.60;;
36827;SDS011;22766;48.042;11.192;2023-06-10T13:23:39;4.50;;;1.65;;
36827;SDS011;22766;48.042;11.192;2023-06-10T13:26:06;2.45;;;1.60;;
36827;SDS011;22766;48.042;11.192;2023-06-10T13:28:33;5.38;;;1.90;;
36827;SDS011;22766;48.042;11.192;2023-06-10T13:31:01;8.15;;;2.15;;
36827;SDS011;22766;48.042;11.192;2023-06-10T13:33:28;2.53;;;1.27;;
36827;SDS011;22766;48.042;11.192;2023-06-10T13:35:55;2.08;;;1.67;;
36827;SDS011;22766;48.042;11.192;2023-06-10T13:38:21;1.75;;;1.40;;
36827;SDS011;22766;48.042;11.192;2023-06-10T13:40:48;2.65;;;1.55;;
36827;SDS011;22766;48.042;11.192;2023-06-10T13:43:14;2.38;;;1.83;;
36827;SDS011;22766;48.042;11.192;2023-06-10T13:45:41;2.00;;;1.40;;
36827;SDS011;22766;48.042;11.192;2023-06-10T13:48:09;2.30;;;1.88;;
36827;SDS011;22766;48.042;11.192;2023-06-10T13:50:37;2.17;;;1.80;;
36827;SDS011;22766;48.042;11.192;2023-06-10T13:53:04;2.42;;;1.55;;
36827;SDS011;22766;48.042;11.192;2023-06-10T13:55:30;2.92;;;1.83;;
36827;SDS011;22766;48.042;11.192;2023-06-10T13:57:57;2.50;;;1.77;;
36827;SDS011;22766;48.042;11.192;2023-06-10T14:00:24;2.83;;;1.63;;
36827;SDS011;22766;48.042;11.192;2023-06-10T14:02:51;2.50;;;1.90;;
36827;SDS011;22766;48.042;11.192;2023-06-10T14:05:18;5.13;;;1.60;;
36827;SDS011;22766;48.042;11.192;2023-06-10T14:07:45;2.65;;;2.03;;
36827;SDS011;22766;48.042;11.192;2023-06-10T14:10:12;2.85;;;1.70;;
36827;SDS011;22766;48.042;11.192;2023-06-10T14:12:39;3.25;;;1.65;;
36827;SDS011;22766;48.042;11.192;2023-06-10T14:15:06;2.30;;;1.65;;
36827;SDS011;22766;48.042;11.192;2023-06-10T14:17:34;2.38;;;1.65;;
36827;SDS011;22766;48.042;11.192;2023-06-10T14:20:00;2.15;;;1.60;;
36827;SDS011;22766;48.042;11.192;2023-06-10T14:22:27;2.25;;;1.40;;
36827;SDS011;22766;48.042;11.192;2023-06-10T14:24:54;5.32;;;1.73;;
36827;SDS011;22766;48.042;11.192;2023-06-10T14:27:20;3.97;;;1.88;;
36827;SDS011;22766;48.042;11.192;2023-06-10T14:29:47;3.78;;;2.22;;
36827;SDS011;22766;48.042;11.192;2023-06-10T14:32:14;4.93;;;1.70;;
36827;SDS011;22766;48.042;11.192;2023-06-10T14:34:42;2.42;;;1.40;;
36827;SDS011;22766;48.042;11.192;2023-06-10T14:37:10;2.83;;;1.80;;
36827;SDS011;22766;48.042;11.192;2023-06-10T14:39:37;4.57;;;2.10;;
36827;SDS011;22766;48.042;11.192;2023-06-10T14:42:04;3.55;;;2.10;;
36827;SDS011;22766;48.042;11.192;2023-06-10T14:44:32;2.20;;;1.70;;
36827;SDS011;22766;48.042;11.192;2023-06-10T14:46:58;2.70;;;1.90;;
36827;SDS011;22766;48.042;11.192;2023-06-10T14:49:25;4.00;;;1.63;;
36827;SDS011;22766;48.042;11.192;2023-06-10T14:51:52;3.55;;;1.80;;
36827;SDS011;22766;48.042;11.192;2023-06-10T14:54:19;5.47;;;1.90;;
36827;SDS011;22766;48.042;11.192;2023-06-10T14:56:45;2.15;;;1.80;;
36827;SDS011;22766;48.042;11.192;2023-06-10T14:59:12;3.28;;;2.08;;
36827;SDS011;22766;48.042;11.192;2023-06-10T15:01:39;2.63;;;2.00;;
36827;SDS011;22766;48.042;11.192;2023-06-10T15:04:05;2.30;;;1.67;;
36827;SDS011;22766;48.042;11.192;2023-06-10T15:06:32;3.20;;;2.08;;
36827;SDS011;22766;48.042;11.192;2023-06-10T15:08:59;4.07;;;2.20;;
36827;SDS011;22766;48.042;11.192;2023-06-10T15:11:26;2.20;;;1.70;;
36827;SDS011;22766;48.042;11.192;2023-06-10T15:13:52;2.50;;;1.73;;
36827;SDS011;22766;48.042;11.192;2023-06-10T15:16:19;2.80;;;1.92;;
36827;SDS011;22766;48.042;11.192;2023-06-10T15:18:46;3.35;;;2.08;;
36827;SDS011;22766;48.042;11.192;2023-06-10T15:21:13;1.92;;;1.50;;